Flight Track Log - Related Links

Times and Time Zones

All times are in EDT time to prevent confusion due to time zone crossing. See the UAL3740 flight status page for this flight to view local times or setup timezone preferences in your user account.


Time Position Orientation Groundspeed Altitude Reporting Facility
EDT Latitude Longitude Course Direction KTS MPH feet Rate Location/Type
Thu 08:41:47 AM 38.9667 -77.5167 90° East 180 207 1,700  Level Potomac TRACON
Thu 08:42:53 AM 39.0000 -77.5833 303° West 246 283 4,000 2,250 Climbing Potomac TRACON
Thu 08:43:47 AM 39.0667 -77.6167 339° North 289 333 6,200 2,579 Climbing Potomac TRACON
Thu 08:44:47 AM 39.1167 -77.5333 52° Northeast 313 360 8,900 1,950 Climbing Potomac TRACON
Thu 08:45:47 AM 39.1500 -77.4167 70° East 348 400 10,100 600 Climbing Potomac TRACON
Thu 08:46:47 AM 39.1500 -77.2833 90° East 397 457 10,100 246 Level Potomac TRACON
Thu 08:47:00 AM 39.0833 -76.5777 90° East  Level FlightAware Approximate
Thu 08:48:38 AM 39.0944 -77.0306 106° East 420 483 10,800  Level Washington Center
Thu 08:49:38 AM 39.0750 -76.8992 101° East 399 459 13,700 2,450 Climbing Washington Center
Thu 08:50:38 AM 39.0953 -76.7736 78° East 383 441 15,700 1,900 Climbing Washington Center
Thu 08:51:38 AM 39.1089 -76.6322 83° East 390 449 17,500 1,600 Climbing Washington Center
Thu 08:52:38 AM 39.1269 -76.4825 81° East 406 467 18,900 750 Climbing Washington Center
Thu 08:53:38 AM 39.1447 -76.3222 82° East 428 493 19,000 1,000 Climbing Washington Center
Thu 08:54:38 AM 39.1622 -76.1617 82° East 447 514 20,900 1,900 Climbing Washington Center
Thu 08:55:38 AM 39.1772 -76.0014 83° East 452 520 22,800 1,200 Climbing Washington Center
Thu 08:56:38 AM 39.2172 -75.8489 71° East 452 520 23,300 1,000 Climbing Washington Center
Thu 08:57:38 AM 39.3092 -75.7336 44° Northeast 434 499 24,800 1,450 Climbing Washington Center
Thu 08:58:38 AM 39.3989 -75.6158 45° Northeast 445 512 26,200 1,250 Climbing Washington Center
Thu 08:59:38 AM 39.4886 -75.5003 45° Northeast 445 512 27,300 913 Climbing Washington Center
Thu 09:01:42 AM 39.6717 -75.2614 45° Northeast 446 513 29,000 554 Climbing New York Center
Thu 09:02:42 AM 39.7619 -75.1294 48° Northeast 464 534 29,000  Level New York Center
Thu 09:03:40 AM 39.8522 -75.0025 47° Northeast 477 549 29,000  Level New York Center
Thu 09:04:41 AM 39.9422 -74.8672 49° Northeast 483 556 29,000  Level New York Center
Thu 09:05:41 AM 40.0411 -74.7239 48° Northeast 483 556 29,000  Level New York Center
Thu 09:06:42 AM 40.0958 -74.5806 63° Northeast 477 549 29,000 -100 Level New York Center
Thu 09:07:41 AM 40.1639 -74.4050 63° Northeast 483 556 28,800 -606 Descending New York Center
Thu 09:10:00 AM 40.2967 -74.0453 64° Northeast 498 573 27,000 -548 Descending Boston Center
Thu 09:10:58 AM 40.3572 -73.8889 63° Northeast 493 567 27,000  Level Boston Center
Thu 09:12:10 AM 40.4175 -73.7294 64° Northeast 488 562 27,000  Level Boston Center
Thu 09:13:11 AM 40.4842 -73.5286 66° East 488 562 27,000  Level Boston Center
Thu 09:14:10 AM 40.5419 -73.3658 65° Northeast 488 562 27,000 -916 Level Boston Center
Thu 09:15:22 AM 40.6142 -73.1700 64° Northeast 483 556 25,000 -1,714 Descending Boston Center
Thu 09:16:23 AM 40.6733 -73.0092 64° Northeast 483 556 23,200 -1,770 Descending Boston Center
Thu 09:17:24 AM 40.7303 -72.8508 65° Northeast 478 550 21,400 -1,916 Descending Boston Center
Thu 09:18:22 AM 40.7933 -72.6786 64° Northeast 473 544 19,400 -1,815 Descending Boston Center
Thu 09:19:23 AM 40.8414 -72.5333 66° East 473 544 17,800 -1,672 Descending Boston Center
Thu 09:20:24 AM 40.8958 -72.3769 65° Northeast 473 544 16,000 -1,815 Descending Boston Center
Thu 09:21:22 AM 40.9497 -72.2258 65° Northeast 462 532 14,200 -2,055 Descending Boston Center
Thu 09:21:37 AM 40.9683 -72.1761 64° Northeast 463 533 13,500 -1,800 Descending Boston Center
Thu 09:22:22 AM 41.0014 -72.0717 67° East 456 525 12,400 -1,727 Descending Boston Center
Thu 09:22:43 AM 41.0219 -72.0136 65° Northeast 449 517 11,600 -1,770 Descending Boston Center
Thu 09:23:23 AM 41.0467 -71.9419 65° Northeast 449 517 10,600 -1,188 Descending Boston Center
Thu 09:24:24 AM 41.1192 -71.8203 52° Northeast 371 427 9,600 -1,105 Descending Boston Center
Thu 09:24:39 AM 41.1314 -71.7981 54° Northeast 334 384 9,200 -1,760 Descending Boston Center
Thu 09:25:39 AM 41.1892 -71.7036 51° Northeast 323 372 7,400 -1,488 Descending Boston Center
Thu 09:26:40 AM 41.2428 -71.6175 50° Northeast 310 357 6,200 -1,180 Descending Boston Center
Thu 09:27:41 AM 41.3133 -71.5778 23° Northeast 256 295 5,000 -595 Descending Boston Center
Thu 09:28:41 AM 41.3822 -71.5769 North 251 289 5,000 -645 Level Boston Center
Thu 09:29:42 AM 41.4550 -71.5758 North 260 299 3,700 -1,388 Descending Boston Center
Thu 09:30:42 AM 41.5217 -71.5750 North 242 278 2,200 -843 Descending Boston Center
Thu 09:31:43 AM 41.5800 -71.5492 18° North 224 258 2,000 -104 Descending Boston Center
Thu 09:32:37 AM 41.6214 -71.5153 31° Northeast 193 222 2,000 -324 Level Boston Center
Thu 09:33:34 AM 41.6544 -71.4872 32° Northeast 150 173 1,400 -615 Descending Boston Center
Thu 09:34:34 AM 41.6856 -71.4617 32° Northeast 127 146 800 -600 Descending Boston Center

Login

Don't have an account? Register now (free) for customized features, flight alerts, and more!